Time;durP1;ratioP1;P1;durP2;ratioP2;P2;SDS_P1;SDS_P2;PMS_P1;PMS_P2;Temp;Humidity;BMP_temperature;BMP_pressure;BME280_temperature;BME280_humidity;BME280_pressure;Samples;Min_cycle;Max_cycle;Signal;HPM_P1;HPM_P2
2021/04/21 00:00:11;;;;;;;3.47;2.80;;;;;;;8.87;100.00;97814.16;5113662;28;20270;-75
2021/04/21 00:02:39;;;;;;;6.00;3.10;;;;;;;8.95;100.00;97807.78;5101129;28;20288;-75
2021/04/21 00:05:07;;;;;;;4.43;3.00;;;;;;;9.01;100.00;97809.22;5093571;28;20762;-75
2021/04/21 00:07:35;;;;;;;3.90;2.27;;;;;;;9.07;100.00;97814.16;5093281;28;20289;-74
2021/04/21 00:10:05;;;;;;;5.00;3.13;;;;;;;8.99;100.00;97806.00;5093032;28;20237;-75
2021/04/21 00:12:32;;;;;;;6.37;2.87;;;;;;;8.85;100.00;97806.22;5092549;28;20303;-74
2021/04/21 00:14:58;;;;;;;5.40;3.07;;;;;;;8.62;100.00;97801.38;5093219;28;20196;-74
2021/04/21 00:17:26;;;;;;;4.23;3.03;;;;;;;8.73;100.00;97803.41;5093479;28;20251;-76
2021/04/21 00:19:54;;;;;;;4.03;3.03;;;;;;;8.78;100.00;97799.63;5092884;28;20274;-75
2021/04/21 00:22:23;;;;;;;5.27;2.93;;;;;;;8.77;100.00;97792.53;5093028;28;20236;-74
2021/04/21 00:24:51;;;;;;;4.23;2.50;;;;;;;8.77;100.00;97795.28;5093168;28;20282;-74
2021/04/21 00:27:20;;;;;;;4.37;2.97;;;;;;;8.85;100.00;97794.44;5093151;28;20291;-74
2021/04/21 00:29:49;;;;;;;5.93;3.63;;;;;;;8.84;100.00;97793.63;5091565;28;20307;-75
2021/04/21 00:32:17;;;;;;;6.03;3.03;;;;;;;8.63;100.00;97786.50;5092786;28;20204;-75
2021/04/21 00:34:44;;;;;;;6.33;2.97;;;;;;;8.63;100.00;97794.75;5092983;28;20204;-75
2021/04/21 00:37:11;;;;;;;6.20;3.43;;;;;;;8.54;100.00;97788.50;5093476;28;20255;-73
2021/04/21 00:39:41;;;;;;;8.23;3.80;;;;;;;8.27;100.00;97788.94;5092743;28;20315;-73
2021/04/21 00:42:17;;;;;;;4.27;2.90;;;;;;;8.35;100.00;97788.09;5086817;28;20201;-73
2021/04/21 00:44:53;;;;;;;5.33;3.47;;;;;;;8.60;100.00;97793.47;5072448;28;20239;-74
2021/04/21 00:47:30;;;;;;;3.90;2.73;;;;;;;8.49;100.00;97794.97;5072228;28;20201;-73
2021/04/21 00:50:10;;;;;;;3.30;2.33;;;;;;;8.48;100.00;97787.06;5098908;28;20220;-73
2021/04/21 00:52:59;;;;;;;2.90;2.37;;;;;;;8.53;100.00;97782.19;5113123;28;20208;-74
2021/04/21 00:55:33;;;;;;;6.50;3.73;;;;;;;8.64;100.00;97790.84;5112961;28;20204;-73
2021/04/21 00:58:30;;;;;;;4.90;3.53;;;;;;;8.64;100.00;97782.59;5113061;27;20217;-73
2021/04/21 01:34:21;;;;;;;6.90;3.43;;;;;;;8.38;100.00;97790.19;5130343;27;20546;-73
2021/04/21 01:36:48;;;;;;;5.63;3.70;;;;;;;8.32;100.00;97788.78;5112292;28;20317;-75
2021/04/21 01:39:17;;;;;;;3.27;2.57;;;;;;;8.31;100.00;97785.22;5129770;28;20207;-73
2021/04/21 01:41:51;;;;;;;3.97;2.43;;;;;;;8.29;100.00;97786.66;5129964;28;20706;-73
2021/04/21 01:44:40;;;;;;;4.47;2.87;;;;;;;8.24;100.00;97784.94;5130032;27;20660;-73
2021/04/21 01:47:09;;;;;;;4.60;2.83;;;;;;;8.31;100.00;97776.16;5130069;27;20199;-73
2021/04/21 01:49:35;;;;;;;4.47;2.77;;;;;;;8.32;100.00;97786.03;5140498;27;20225;-73
2021/04/21 01:52:13;;;;;;;3.67;2.67;;;;;;;8.28;100.00;97785.06;5150856;27;20237;-74
2021/04/21 01:54:43;;;;;;;5.43;3.23;;;;;;;8.08;100.00;97792.09;5152007;27;20717;-73
2021/04/21 01:57:30;;;;;;;4.03;2.87;;;;;;;8.22;100.00;97787.16;5149492;27;20310;-74
2021/04/21 02:00:04;;;;;;;6.30;3.33;;;;;;;7.96;100.00;97789.19;5124885;27;20315;-75
2021/04/21 02:02:37;;;;;;;4.13;3.00;;;;;;;8.08;100.00;97787.38;5105307;28;20206;-76
2021/04/21 02:05:26;;;;;;;5.97;2.80;;;;;;;8.08;100.00;97790.13;5126053;27;20280;-74
2021/04/21 02:08:26;;;;;;;6.03;3.90;;;;;;;7.95;100.00;97796.66;5145487;27;20237;-74
2021/04/21 02:11:25;;;;;;;5.53;3.13;;;;;;;8.05;100.00;97784.47;5145825;27;20714;-74
2021/04/21 02:14:03;;;;;;;8.13;2.50;;;;;;;7.93;100.00;97790.69;5087903;27;20226;-74
2021/04/21 02:17:09;;;;;;;4.30;2.37;;;;;;;7.85;100.00;97797.00;5129200;27;20285;-74
2021/04/21 02:19:45;;;;;;;6.83;3.57;;;;;;;7.97;100.00;97799.84;5144874;27;20230;-74
2021/04/21 02:22:26;;;;;;;4.37;2.40;;;;;;;7.96;100.00;97787.28;5150189;27;20209;-74
2021/04/21 02:25:04;;;;;;;2.90;2.43;;;;;;;8.12;100.00;97788.31;5149576;27;20294;-74
2021/04/21 02:28:13;;;;;;;2.97;2.10;;;;;;;8.04;100.00;97785.63;5149899;27;20195;-74
2021/04/21 02:30:45;;;;;;;4.97;1.90;;;;;;;8.02;100.00;97780.47;5112111;27;20301;-74
2021/04/21 02:33:19;;;;;;;3.77;2.27;;;;;;;8.00;100.00;97780.00;5149493;27;20260;-74
2021/04/21 02:35:49;;;;;;;3.13;2.27;;;;;;;7.87;100.00;97780.19;5149557;27;20290;-73
2021/04/21 02:38:37;;;;;;;3.03;2.30;;;;;;;7.86;100.00;97773.91;5149464;27;20750;-74
2021/04/21 02:41:17;;;;;;;5.93;2.90;;;;;;;7.48;100.00;97778.50;5149392;27;20309;-74
2021/04/21 02:44:20;;;;;;;4.07;2.80;;;;;;;7.54;100.00;97782.69;5127107;27;20278;-73
2021/04/21 02:47:11;;;;;;;3.80;2.60;;;;;;;7.47;100.00;97784.31;5111072;28;20277;-74
2021/04/21 02:49:47;;;;;;;2.50;2.17;;;;;;;7.61;100.00;97783.00;5114783;28;20221;-74
2021/04/21 02:52:35;;;;;;;5.03;2.97;;;;;;;7.83;100.00;97785.53;5114874;28;20286;-74
2021/04/21 02:55:26;;;;;;;5.10;3.30;;;;;;;7.90;100.00;97776.81;5115026;28;20200;-74
2021/04/21 02:58:12;;;;;;;3.83;1.97;;;;;;;7.95;100.00;97777.44;5114968;28;20287;-73
2021/04/21 03:00:47;;;;;;;3.50;2.57;;;;;;;8.15;100.00;97771.19;5114543;28;20306;-73
2021/04/21 03:03:28;;;;;;;4.33;2.17;;;;;;;8.17;100.00;97779.91;5114970;28;20206;-74
2021/04/21 03:06:03;;;;;;;3.47;2.63;;;;;;;8.18;100.00;97780.72;5114555;28;20203;-74
2021/04/21 03:08:39;;;;;;;3.70;2.73;;;;;;;8.13;100.00;97775.41;5114549;28;20199;-74
2021/04/21 03:11:23;;;;;;;4.53;3.17;;;;;;;7.77;100.00;97780.56;5114239;28;20310;-74
2021/04/21 03:13:54;;;;;;;5.33;3.97;;;;;;;7.60;100.00;97777.84;5096277;28;20649;-74
2021/04/21 03:16:22;;;;;;;6.27;3.90;;;;;;;7.77;100.00;97783.31;5114684;28;20247;-75
2021/04/21 03:18:49;;;;;;;7.67;3.67;;;;;;;8.30;100.00;97786.34;5114080;28;20698;-74
2021/04/21 03:21:23;;;;;;;7.70;4.60;;;;;;;8.29;100.00;97790.22;5114406;28;20227;-74
2021/04/21 03:24:03;;;;;;;8.67;5.03;;;;;;;8.14;100.00;97797.06;5114227;28;20261;-74
2021/04/21 03:26:30;;;;;;;9.33;5.07;;;;;;;8.39;100.00;97789.06;5096252;28;20295;-74
2021/04/21 03:29:04;;;;;;;7.70;4.70;;;;;;;8.06;100.00;97788.84;5095926;28;20243;-74
2021/04/21 03:31:33;;;;;;;5.93;4.43;;;;;;;7.78;100.00;97796.69;5114087;28;20234;-74
2021/04/21 03:34:08;;;;;;;9.93;4.57;;;;;;;8.09;100.00;97783.50;5113831;28;20220;-74
2021/04/21 03:36:37;;;;;;;7.13;4.13;;;;;;;8.20;100.00;97789.44;5114007;28;20207;-74
2021/04/21 03:39:03;;;;;;;10.80;5.03;;;;;;;7.65;100.00;97800.44;5113927;28;20204;-74
2021/04/21 03:41:29;;;;;;;7.53;4.23;;;;;;;7.91;100.00;97792.13;5095836;28;20327;-73
2021/04/21 03:43:55;;;;;;;11.17;5.33;;;;;;;7.73;100.00;97793.31;5095844;28;20302;-74
2021/04/21 03:46:22;;;;;;;8.13;4.63;;;;;;;7.91;100.00;97798.44;5113913;28;20802;-74
2021/04/21 03:48:49;;;;;;;9.50;5.70;;;;;;;8.16;100.00;97793.97;5113694;28;20196;-74
2021/04/21 03:51:17;;;;;;;9.57;5.27;;;;;;;8.17;100.00;97784.59;5113905;28;20310;-74
2021/04/21 03:53:44;;;;;;;8.27;4.57;;;;;;;8.28;100.00;97790.56;5113700;28;20234;-74
2021/04/21 03:56:23;;;;;;;7.70;4.70;;;;;;;8.05;100.00;97785.28;5094612;28;20294;-74
2021/04/21 03:58:52;;;;;;;8.30;4.10;;;;;;;7.91;100.00;97787.47;5113942;28;20267;-74
2021/04/21 04:01:21;;;;;;;6.93;4.30;;;;;;;7.70;100.00;97783.78;5113623;28;20834;-74
2021/04/21 04:03:52;;;;;;;9.00;4.50;;;;;;;7.55;100.00;97784.34;5095669;28;20291;-74
2021/04/21 04:06:18;;;;;;;6.17;3.93;;;;;;;7.91;100.00;97792.94;5113545;28;20244;-74
2021/04/21 04:08:56;;;;;;;7.67;4.40;;;;;;;7.93;100.00;97795.38;5113304;28;20204;-73
2021/04/21 04:11:28;;;;;;;5.70;3.97;;;;;;;7.44;100.00;97794.03;5113191;28;20259;-74
2021/04/21 04:14:01;;;;;;;6.53;4.67;;;;;;;7.66;100.00;97799.34;5113462;28;20220;-74
2021/04/21 04:16:29;;;;;;;6.17;3.60;;;;;;;7.57;100.00;97804.00;5113529;28;20291;-74
2021/04/21 04:18:57;;;;;;;6.23;4.27;;;;;;;7.60;100.00;97802.56;5112784;28;20200;-73
2021/04/21 04:21:35;;;;;;;5.73;3.57;;;;;;;7.65;100.00;97811.44;5094787;28;20712;-74
2021/04/21 04:24:02;;;;;;;9.43;4.10;;;;;;;7.38;100.00;97808.25;5112967;28;20718;-74
2021/04/21 04:26:28;;;;;;;9.63;4.47;;;;;;;7.46;100.00;97811.00;5113059;28;20235;-74
2021/04/21 04:28:55;;;;;;;6.23;3.70;;;;;;;7.53;100.00;97807.75;5112666;28;20754;-73
2021/04/21 04:31:21;;;;;;;6.60;3.40;;;;;;;7.12;100.00;97813.75;5112765;28;20267;-74
2021/04/21 04:33:50;;;;;;;8.87;4.60;;;;;;;6.97;100.00;97815.03;5112794;28;20220;-73
2021/04/21 04:36:17;;;;;;;5.17;3.67;;;;;;;6.89;100.00;97820.50;5112759;28;20658;-72
2021/04/21 04:38:43;;;;;;;4.03;3.63;;;;;;;7.40;100.00;97823.25;5112413;28;20235;-72
2021/04/21 04:41:11;;;;;;;6.27;4.00;;;;;;;7.18;100.00;97823.44;5111717;28;20219;-75
2021/04/21 04:43:40;;;;;;;8.33;5.30;;;;;;;7.26;100.00;97819.88;5109777;28;20204;-75
2021/04/21 04:46:08;;;;;;;7.07;4.20;;;;;;;7.17;100.00;97830.84;5112041;28;20291;-75
2021/04/21 04:48:45;;;;;;;4.53;3.03;;;;;;;6.98;100.00;97819.41;5112069;28;20208;-74
2021/04/21 04:51:12;;;;;;;5.97;3.60;;;;;;;6.81;100.00;97835.00;5112603;28;20266;-73
2021/04/21 04:53:40;;;;;;;4.50;3.40;;;;;;;7.10;100.00;97844.25;5112583;28;20310;-74
2021/04/21 04:56:07;;;;;;;5.50;3.37;;;;;;;7.06;100.00;97840.53;5112996;28;20239;-74
2021/04/21 04:58:35;;;;;;;7.63;4.57;;;;;;;7.05;100.00;97846.34;5094067;28;20215;-75
2021/04/21 05:01:06;;;;;;;4.27;2.43;;;;;;;6.71;100.00;97840.81;5093916;28;20223;-73
2021/04/21 05:03:51;;;;;;;6.27;4.33;;;;;;;6.78;100.00;97835.66;5095929;28;20245;-73
2021/04/21 05:06:28;;;;;;;5.93;3.77;;;;;;;7.24;100.00;97835.06;5094509;28;20306;-74
2021/04/21 05:08:56;;;;;;;8.70;4.53;;;;;;;7.56;100.00;97829.03;5093888;28;20739;-74
2021/04/21 05:11:23;;;;;;;5.90;4.13;;;;;;;7.07;100.00;97833.09;5112221;28;20330;-73
2021/04/21 05:13:51;;;;;;;6.63;4.17;;;;;;;6.98;100.00;97835.03;5112339;28;20323;-73
2021/04/21 05:16:24;;;;;;;8.13;4.07;;;;;;;6.98;100.00;97846.00;5100320;28;20323;-73
2021/04/21 05:19:02;;;;;;;7.13;4.97;;;;;;;7.21;100.00;97844.72;5087497;28;20281;-74
2021/04/21 05:21:54;;;;;;;4.80;3.40;;;;;;;7.97;100.00;97840.28;5069962;28;20228;-74
2021/04/21 05:24:38;;;;;;;5.47;3.23;;;;;;;7.38;100.00;97846.66;5086876;28;20292;-75
2021/04/21 05:27:41;;;;;;;4.87;3.50;;;;;;;7.55;100.00;97833.75;5087083;28;20240;-74
2021/04/21 05:30:45;;;;;;;7.93;4.30;;;;;;;7.26;100.00;97847.34;5086160;28;20311;-74
2021/04/21 05:33:32;;;;;;;6.30;3.97;;;;;;;7.65;100.00;97843.56;5086771;28;20307;-72
2021/04/21 05:36:36;;;;;;;7.93;4.30;;;;;;;7.61;100.00;97837.94;5086913;28;20283;-74
2021/04/21 05:39:40;;;;;;;9.73;3.40;;;;;;;7.58;100.00;97833.09;5085987;28;20207;-74
2021/04/21 05:42:24;;;;;;;6.70;4.47;;;;;;;7.79;100.00;97839.50;5092754;28;20256;-71
2021/04/21 05:44:57;;;;;;;6.70;4.30;;;;;;;8.06;100.00;97828.13;5106892;28;20693;-76
2021/04/21 05:47:38;;;;;;;9.83;4.10;;;;;;;7.77;100.00;97843.72;5107831;28;20249;-70
2021/04/21 05:50:42;;;;;;;7.07;4.87;;;;;;;7.39;100.00;97848.28;5094163;28;20302;-70
2021/04/21 05:53:45;;;;;;;7.97;4.17;;;;;;;7.68;100.00;97843.72;5107158;28;20227;-74
2021/04/21 05:56:49;;;;;;;7.13;3.97;;;;;;;7.50;100.00;97846.84;5090015;28;20258;-75
2021/04/21 05:59:18;;;;;;;7.17;4.23;;;;;;;7.84;100.00;97853.09;5106390;28;20817;-75
2021/04/21 06:01:46;;;;;;;9.73;4.77;;;;;;;8.09;100.00;97849.47;5106859;28;20231;-72
2021/04/21 06:04:15;;;;;;;7.90;4.20;;;;;;;7.77;100.00;97844.50;5089359;28;20226;-69
2021/04/21 06:06:41;;;;;;;10.50;4.47;;;;;;;8.06;100.00;97847.34;5107991;28;20247;-70
2021/04/21 06:09:09;;;;;;;8.07;4.57;;;;;;;8.26;100.00;97842.31;5087952;28;20586;-71
2021/04/21 06:11:36;;;;;;;7.73;4.53;;;;;;;8.42;100.00;97841.44;5107947;28;20311;-77
2021/04/21 06:14:05;;;;;;;9.70;5.23;;;;;;;8.65;100.00;97840.00;5107206;28;20293;-76
2021/04/21 06:16:32;;;;;;;8.60;4.77;;;;;;;7.93;100.00;97837.38;5105882;28;20249;-75
2021/04/21 06:19:02;;;;;;;4.93;3.57;;;;;;;8.21;100.00;97840.53;5106061;28;20504;-76
2021/04/21 06:21:32;;;;;;;9.03;4.87;;;;;;;7.88;100.00;97843.03;5110306;28;20280;-75
2021/04/21 06:23:58;;;;;;;8.47;5.43;;;;;;;7.92;100.00;97852.25;5110093;28;20291;-74
2021/04/21 06:26:31;;;;;;;9.27;5.17;;;;;;;8.01;100.00;97850.28;5110155;28;20234;-72
2021/04/21 06:29:05;;;;;;;7.60;3.63;;;;;;;8.64;100.00;97848.59;5089477;28;20236;-72
2021/04/21 06:31:51;;;;;;;8.23;4.93;;;;;;;9.14;100.00;97849.44;5072305;28;20256;-74
2021/04/21 06:34:18;;;;;;;6.93;4.33;;;;;;;8.85;100.00;97839.25;5090603;28;20748;-72
2021/04/21 06:36:46;;;;;;;9.07;4.77;;;;;;;9.25;100.00;97842.38;5107414;28;20210;-72
2021/04/21 06:39:17;;;;;;;7.33;4.90;;;;;;;9.24;100.00;97840.75;5091295;28;20204;-74
2021/04/21 06:41:44;;;;;;;8.57;5.63;;;;;;;8.74;100.00;97845.50;5108320;28;20755;-72
2021/04/21 06:44:13;;;;;;;7.73;4.73;;;;;;;9.12;100.00;97846.22;5110145;28;20234;-74
2021/04/21 06:46:39;;;;;;;8.30;4.33;;;;;;;9.01;100.00;97843.03;5111205;28;20211;-73
2021/04/21 06:49:05;;;;;;;6.73;4.23;;;;;;;9.44;100.00;97845.47;5105278;28;20199;-73
2021/04/21 06:51:33;;;;;;;9.10;4.60;;;;;;;9.55;100.00;97846.66;5110463;27;20665;-73
2021/04/21 06:54:00;;;;;;;11.37;6.00;;;;;;;8.87;100.00;97838.91;5110105;28;20899;-74
2021/04/21 06:56:30;;;;;;;8.37;4.53;;;;;;;9.04;100.00;97847.06;5110277;28;20226;-73
2021/04/21 06:58:57;;;;;;;11.13;7.03;;;;;;;8.87;100.00;97842.47;5110066;28;20301;-74
2021/04/21 07:01:29;;;;;;;6.73;4.43;;;;;;;8.87;100.00;97853.47;5111374;27;20265;-75
2021/04/21 07:04:10;;;;;;;9.17;5.63;;;;;;;9.14;100.00;97852.19;5109762;28;20204;-73
2021/04/21 07:06:38;;;;;;;11.63;5.13;;;;;;;9.58;100.00;97848.72;5110183;28;20211;-74
2021/04/21 07:09:15;;;;;;;7.13;3.77;;;;;;;9.65;100.00;97851.75;5091748;28;20239;-74
2021/04/21 07:11:45;;;;;;;10.60;5.83;;;;;;;9.61;100.00;97853.56;5110593;28;20229;-74
2021/04/21 07:14:19;;;;;;;7.63;5.03;;;;;;;9.31;100.00;97852.03;5118117;27;20224;-75
2021/04/21 07:16:45;;;;;;;12.23;6.27;;;;;;;9.40;100.00;97850.03;5130399;27;20763;-72
2021/04/21 07:19:14;;;;;;;7.47;4.97;;;;;;;9.57;100.00;97847.13;5111974;27;20200;-70
2021/04/21 07:21:42;;;;;;;16.23;6.93;;;;;;;9.63;100.00;97848.53;5130905;27;20303;-74
2021/04/21 07:24:15;;;;;;;12.63;6.20;;;;;;;10.47;100.00;97838.88;5129703;27;20234;-74
2021/04/21 07:26:44;;;;;;;11.53;6.20;;;;;;;11.10;100.00;97840.91;5130442;27;20203;-76
2021/04/21 07:29:22;;;;;;;12.60;5.13;;;;;;;10.69;100.00;97833.69;5130087;27;20211;-75
2021/04/21 07:31:49;;;;;;;11.53;6.20;;;;;;;11.22;100.00;97835.38;5130653;27;20890;-74
2021/04/21 07:34:33;;;;;;;9.37;6.57;;;;;;;11.44;100.00;97840.38;5129662;27;20703;-75
2021/04/21 07:37:00;;;;;;;11.17;5.63;;;;;;;11.36;100.00;97841.34;5112282;27;20234;-75
2021/04/21 07:39:40;;;;;;;9.23;5.33;;;;;;;11.35;100.00;97848.00;5110998;27;20203;-76
2021/04/21 07:42:17;;;;;;;11.13;5.57;;;;;;;11.63;100.00;97832.25;5124076;27;20235;-74
2021/04/21 07:44:53;;;;;;;10.00;6.30;;;;;;;11.71;100.00;97839.63;5109651;28;20206;-74
2021/04/21 07:47:21;;;;;;;9.93;5.63;;;;;;;11.21;100.00;97831.00;5109711;28;20203;-71
2021/04/21 07:49:59;;;;;;;7.23;5.17;;;;;;;12.34;100.00;97831.44;5108392;28;20212;-71
2021/04/21 07:52:33;;;;;;;11.30;5.73;;;;;;;12.75;100.00;97826.19;5095421;28;20250;-71
2021/04/21 07:55:11;;;;;;;10.20;5.50;;;;;;;12.77;100.00;97826.59;5088766;28;20234;-71
2021/04/21 07:57:39;;;;;;;9.03;5.97;;;;;;;13.59;100.00;97819.00;5087706;28;20204;-72
2021/04/21 08:00:10;;;;;;;9.03;5.00;;;;;;;14.12;100.00;97818.06;5108256;28;20255;-72
2021/04/21 08:02:37;;;;;;;10.87;5.73;;;;;;;13.65;100.00;97823.06;5106613;28;20235;-73
2021/04/21 08:05:11;;;;;;;10.03;6.10;;;;;;;13.86;100.00;97820.75;5108679;28;20243;-73
2021/04/21 08:07:42;;;;;;;11.53;6.70;;;;;;;15.18;100.00;97820.66;5106112;28;20622;-71
2021/04/21 08:10:24;;;;;;;10.97;7.03;;;;;;;14.96;100.00;97823.50;5073989;28;20216;-71
2021/04/21 08:12:51;;;;;;;11.40;6.00;;;;;;;14.62;100.00;97819.78;5090138;28;20780;-73
2021/04/21 08:15:19;;;;;;;11.57;6.63;;;;;;;16.07;100.00;97822.66;5101757;27;20203;-72
2021/04/21 08:17:54;;;;;;;11.50;6.88;;;;;;;16.34;100.00;97820.53;5104617;27;20245;-75
2021/04/21 08:20:43;;;;;;;10.85;6.15;;;;;;;17.28;100.00;97819.75;5104834;27;20215;-75
2021/04/21 08:23:29;;;;;;;9.48;5.80;;;;;;;17.79;100.00;97821.25;5091104;28;20679;-76
2021/04/21 08:25:55;;;;;;;10.38;6.63;;;;;;;18.89;100.00;97811.94;5107203;28;20227;-73
2021/04/21 08:28:22;;;;;;;9.93;6.32;;;;;;;18.17;100.00;97817.78;5088319;28;20200;-73
2021/04/21 08:30:56;;;;;;;11.73;7.38;;;;;;;16.51;100.00;97822.72;5107821;28;20247;-73
2021/04/21 08:33:22;;;;;;;10.88;6.60;;;;;;;17.15;100.00;97819.28;5105505;28;20277;-74
2021/04/21 08:35:48;;;;;;;9.85;6.43;;;;;;;17.36;100.00;97824.97;5088108;28;20223;-74
2021/04/21 08:38:15;;;;;;;9.45;7.00;;;;;;;17.20;100.00;97816.13;5103535;27;20306;-73
2021/04/21 08:40:41;;;;;;;11.57;6.30;;;;;;;17.27;100.00;97821.75;5105106;28;20216;-73
2021/04/21 08:43:08;;;;;;;10.15;7.05;;;;;;;16.80;100.00;97819.81;5105859;28;20292;-74
2021/04/21 08:45:36;;;;;;;9.05;6.32;;;;;;;16.74;100.00;97826.91;5107087;28;20656;-73
2021/04/21 08:48:04;;;;;;;12.20;6.65;;;;;;;16.93;100.00;97817.53;5087772;28;20668;-72
2021/04/21 08:50:37;;;;;;;10.23;6.15;;;;;;;17.56;100.00;97817.94;5105654;28;20246;-74
2021/04/21 08:53:06;;;;;;;12.25;6.68;;;;;;;20.28;100.00;97813.19;5105826;28;20715;-75
2021/04/21 08:55:33;;;;;;;10.35;6.93;;;;;;;19.80;100.00;97813.78;5084138;28;20298;-74
2021/04/21 08:58:01;;;;;;;8.57;5.88;;;;;;;20.14;100.00;97808.44;5106350;28;20218;-75
2021/04/21 09:00:27;;;;;;;11.02;6.95;;;;;;;20.56;100.00;97807.41;5106666;28;20251;-75
2021/04/21 09:02:59;;;;;;;9.45;6.63;;;;;;;20.53;100.00;97811.03;5105162;28;20286;-73
2021/04/21 09:05:25;;;;;;;10.82;6.80;;;;;;;18.78;100.00;97815.91;5106941;28;20253;-75
2021/04/21 09:07:51;;;;;;;12.35;7.47;;;;;;;18.42;100.00;97809.50;5106863;28;20287;-75
2021/04/21 09:10:19;;;;;;;11.43;6.55;;;;;;;20.19;100.00;97802.44;5105315;28;20211;-74
2021/04/21 09:12:45;;;;;;;8.77;6.07;;;;;;;21.03;100.00;97809.47;5087582;28;20227;-73
2021/04/21 09:15:13;;;;;;;10.45;6.57;;;;;;;21.42;100.00;97804.28;5107251;27;20253;-73
2021/04/21 09:17:51;;;;;;;10.00;5.97;;;;;;;21.35;100.00;97793.09;5105172;28;20265;-71
2021/04/21 09:20:21;;;;;;;10.15;6.32;;;;;;;22.09;100.00;97795.91;5082133;28;20219;-72
2021/04/21 09:23:04;;;;;;;9.57;6.43;;;;;;;21.86;100.00;97800.63;5105616;28;20208;-71
2021/04/21 09:25:35;;;;;;;9.43;6.30;;;;;;;21.52;100.00;97797.75;5087124;28;20227;-72
2021/04/21 09:28:03;;;;;;;9.77;6.82;;;;;;;21.72;100.00;97792.31;5104456;28;20354;-74
2021/04/21 09:30:30;;;;;;;10.38;6.38;;;;;;;22.21;100.00;97794.50;5106000;28;20268;-70
2021/04/21 09:32:59;;;;;;;12.32;7.03;;;;;;;22.03;100.00;97789.16;5105012;28;20200;-72
2021/04/21 09:35:33;;;;;;;9.43;6.55;;;;;;;22.10;100.00;97788.25;5105272;28;20195;-72
2021/04/21 09:38:08;;;;;;;9.05;6.03;;;;;;;22.23;100.00;97792.09;5103702;28;20232;-74
2021/04/21 09:40:48;;;;;;;8.07;5.82;;;;;;;22.09;100.00;97787.47;5103051;28;20273;-75
2021/04/21 09:43:28;;;;;;;8.88;6.55;;;;;;;22.73;100.00;97783.75;5103129;28;20216;-73
2021/04/21 09:45:57;;;;;;;9.65;6.30;;;;;;;23.28;100.00;97778.38;5102992;28;20200;-73
2021/04/21 09:48:28;;;;;;;8.13;6.55;;;;;;;22.71;100.00;97774.94;5103828;28;20601;-72
2021/04/21 09:51:07;;;;;;;9.85;6.22;;;;;;;23.05;100.00;97770.72;5100823;28;20224;-73
2021/04/21 09:53:39;;;;;;;8.88;5.40;;;;;;;23.28;100.00;97772.75;5101937;28;20277;-75
2021/04/21 09:56:10;;;;;;;9.60;5.65;;;;;;;23.35;100.00;97769.81;5109294;28;20681;-73
2021/04/21 09:58:39;;;;;;;7.60;5.72;;;;;;;23.49;100.00;97769.53;5107897;28;20234;-72
2021/04/21 10:01:33;;;;;;;9.35;6.32;;;;;;;22.95;100.00;97760.47;5107514;28;20226;-74
2021/04/21 10:04:15;;;;;;;8.45;5.95;;;;;;;22.19;100.00;97768.84;5106208;28;20702;-73
2021/04/21 10:06:53;;;;;;;10.52;6.47;;;;;;;22.62;100.00;97757.78;5107656;28;20216;-73
2021/04/21 10:09:31;;;;;;;8.30;5.35;;;;;;;21.84;100.00;97764.47;5106796;28;20192;-73
2021/04/21 10:12:32;;;;;;;9.90;6.97;;;;;;;21.63;100.00;97766.72;5088381;28;20439;-75
2021/04/21 10:15:10;;;;;;;8.02;5.90;;;;;;;21.32;100.00;97756.66;5107039;28;20215;-74
2021/04/21 10:17:42;;;;;;;12.20;6.25;;;;;;;22.10;100.00;97755.31;5107093;28;20715;-75
2021/04/21 10:20:11;;;;;;;8.57;6.70;;;;;;;21.67;100.00;97754.25;5089672;28;20228;-74
2021/04/21 10:22:39;;;;;;;9.18;5.82;;;;;;;22.11;100.00;97748.50;5108135;28;20230;-73
2021/04/21 10:25:07;;;;;;;12.05;6.78;;;;;;;22.30;100.00;97746.22;5108173;28;20223;-75
2021/04/21 10:27:35;;;;;;;9.88;6.43;;;;;;;22.63;100.00;97742.50;5106439;28;20716;-74
2021/04/21 10:30:04;;;;;;;8.68;6.05;;;;;;;22.62;100.00;97740.91;5107384;28;20219;-74
2021/04/21 10:32:32;;;;;;;12.15;6.40;;;;;;;22.54;100.00;97737.38;5089476;28;20662;-74
2021/04/21 10:34:59;;;;;;;9.60;5.85;;;;;;;22.21;100.00;97737.50;5090536;28;20231;-74
2021/04/21 10:37:26;;;;;;;10.48;5.50;;;;;;;22.04;100.00;97734.50;5108392;28;20228;-74
2021/04/21 10:39:54;;;;;;;6.93;5.30;;;;;;;21.87;100.00;97727.13;5107121;28;20212;-76
2021/04/21 10:42:22;;;;;;;9.02;5.78;;;;;;;21.64;100.00;97723.41;5108368;28;20235;-75
2021/04/21 10:44:50;;;;;;;10.02;6.30;;;;;;;21.87;100.00;97718.69;5108079;27;20220;-76
2021/04/21 10:47:29;;;;;;;9.52;5.45;;;;;;;21.90;100.00;97723.47;5107706;28;20287;-75
2021/04/21 10:50:03;;;;;;;7.57;4.93;;;;;;;21.38;100.00;97715.69;5087010;28;20223;-75
2021/04/21 10:52:29;;;;;;;8.05;5.00;;;;;;;20.91;100.00;97706.16;5109415;28;20196;-76
2021/04/21 10:54:58;;;;;;;8.10;5.22;;;;;;;20.29;100.00;97709.06;5108491;28;20196;-73
2021/04/21 10:57:27;;;;;;;8.27;5.38;;;;;;;19.90;100.00;97703.72;5100293;28;20553;-73
2021/04/21 11:00:06;;;;;;;7.78;5.40;;;;;;;20.33;100.00;97697.84;5106778;27;20260;-76
2021/04/21 11:02:41;;;;;;;8.20;5.55;;;;;;;20.56;100.00;97698.84;5108798;28;20199;-75
2021/04/21 11:05:13;;;;;;;9.02;5.93;;;;;;;20.38;100.00;97697.41;5106588;27;20224;-77
2021/04/21 11:07:43;;;;;;;8.18;5.30;;;;;;;20.58;100.00;97690.03;5110155;28;20590;-74
2021/04/21 11:10:32;;;;;;;10.13;5.53;;;;;;;20.73;100.00;97691.50;5109643;28;20274;-75
2021/04/21 11:13:02;;;;;;;9.25;5.50;;;;;;;20.11;100.00;97695.16;5089167;28;20196;-76
2021/04/21 11:15:35;;;;;;;7.20;5.22;;;;;;;20.35;100.00;97684.19;5098312;27;20223;-74
2021/04/21 11:18:07;;;;;;;11.05;5.85;;;;;;;20.28;100.00;97689.84;5099582;27;20324;-78
2021/04/21 11:20:45;;;;;;;8.05;5.00;;;;;;;20.65;100.00;97681.53;5086693;28;20293;-77
2021/04/21 11:23:59;;;;;;;10.63;5.68;;;;;;;20.02;100.00;97688.41;5087615;28;20610;-76
2021/04/21 11:29:03;;;;;;;7.03;4.68;;;;;;;20.01;100.00;97682.03;5104982;28;20223;-76
2021/04/21 11:31:44;;;;;;;9.90;5.65;;;;;;;19.44;100.00;97680.75;5087098;28;20305;-75
2021/04/21 11:34:21;;;;;;;10.23;5.70;;;;;;;19.64;100.00;97687.44;5109462;27;20717;-77
2021/04/21 11:36:54;;;;;;;9.07;5.47;;;;;;;19.55;100.00;97681.50;5106096;28;20192;-76
2021/04/21 11:42:29;;;;;;;8.90;4.93;;;;;;;19.65;100.00;97680.63;5105811;28;20287;-75
2021/04/21 11:44:58;;;;;;;8.18;5.30;;;;;;;19.55;100.00;97670.28;5105275;27;20243;-74
2021/04/21 11:47:32;;;;;;;7.07;4.57;;;;;;;19.59;100.00;97676.69;5107269;28;20192;-74
2021/04/21 11:50:02;;;;;;;8.70;4.45;;;;;;;19.53;100.00;97669.91;5087172;28;20264;-75
2021/04/21 11:52:45;;;;;;;9.50;5.00;;;;;;;19.38;100.00;97676.75;5103708;28;20736;-74
2021/04/21 11:55:55;;;;;;;6.32;3.67;;;;;;;19.19;100.00;97669.63;5083860;28;20207;-74
2021/04/21 11:58:25;;;;;;;5.95;4.05;;;;;;;19.11;100.00;97678.44;5052326;28;20251;-75
2021/04/21 12:00:58;;;;;;;8.80;4.22;;;;;;;19.03;100.00;97679.69;5106908;28;20220;-75
2021/04/21 12:03:45;;;;;;;8.57;4.50;;;;;;;18.75;100.00;97674.94;5106798;28;20223;-76
2021/04/21 12:06:15;;;;;;;8.77;4.68;;;;;;;18.88;100.00;97683.69;5107342;28;20298;-77
2021/04/21 12:08:48;;;;;;;5.93;3.65;;;;;;;18.58;100.00;97683.34;5070911;28;20302;-75
2021/04/21 12:11:26;;;;;;;4.05;2.88;;;;;;;17.79;100.00;97687.25;5102948;28;20230;-75
2021/04/21 12:13:52;;;;;;;3.38;2.35;;;;;;;17.13;100.00;97693.38;5106274;28;20527;-75
2021/04/21 12:16:22;;;;;;;2.88;2.10;;;;;;;16.75;100.00;97703.09;5106881;28;20245;-75
2021/04/21 12:18:53;;;;;;;3.30;2.40;;;;;;;16.93;100.00;97700.44;5105062;28;20203;-75
2021/04/21 12:21:23;;;;;;;3.72;2.22;;;;;;;17.04;100.00;97701.31;5105758;28;20227;-75
2021/04/21 12:23:51;;;;;;;3.83;2.83;;;;;;;16.80;100.00;97697.19;5106376;28;20258;-74
2021/04/21 12:26:21;;;;;;;3.73;2.17;;;;;;;16.68;100.00;97696.69;5108368;27;20204;-75
2021/04/21 12:28:58;;;;;;;7.13;2.80;;;;;;;16.34;100.00;97692.41;5127143;27;20286;-75
2021/04/21 12:31:25;;;;;;;4.57;2.40;;;;;;;16.08;100.00;97676.69;5127160;27;20254;-75
2021/04/21 12:33:53;;;;;;;3.07;1.63;;;;;;;15.84;100.00;97694.75;5109220;28;20275;-75
2021/04/21 12:36:23;;;;;;;3.47;1.83;;;;;;;15.27;100.00;97692.53;5103898;28;20276;-75
2021/04/21 12:39:19;;;;;;;3.33;2.07;;;;;;;15.23;100.00;97700.81;5126422;27;20207;-74